Zamora, California
Current Conditions -  °F | °C
As of 1:53 AM on Saturday 22 Nov 2014 (Local Time) from KSMF Reporting Station
Overcast Overcast  
Wind Chill: 56°   Ceiling: 3800
Heat Index: 56°   Visibility: 8mi
Dew Point: 50°   Wind: 17mph
Humidity: 80%   Direction: 150°SSE
Pressure: 30.08"   Gusts: NA
Location:  38.8°N, 121.88°W
Report Text: KSMF 220953Z 15015KT 8SM OVC038 13/10 A3008 RMK AO2 RAB0858E49 SLP186 P0000 T01330100
Loading
Personal Weather Stations






























Interactive Weather Map New forecast layout! Learn more

10-Day Weather Forecast

Advertisements
Track Severe Weather on mobile